createdAt,value
2018-04-22T00:01:52.488Z,15.27
2018-04-22T00:04:19.241Z,14.03
2018-04-22T00:06:46.757Z,17.67
2018-04-22T00:09:13.531Z,13.37
2018-04-22T00:11:40.285Z,13.70
2018-04-22T00:14:07.724Z,11.50
2018-04-22T00:16:34.425Z,17.23
2018-04-22T00:19:01.108Z,16.23
2018-04-22T00:21:27.821Z,15.30
2018-04-22T00:23:54.519Z,17.70
2018-04-22T00:26:21.202Z,13.57
2018-04-22T00:28:47.892Z,14.33
2018-04-22T00:31:14.606Z,15.33
2018-04-22T00:33:42.048Z,14.40
2018-04-22T00:36:08.735Z,17.30
2018-04-22T00:38:35.435Z,15.13
2018-04-22T00:41:02.185Z,15.17
2018-04-22T00:43:29.719Z,13.63
2018-04-22T00:45:56.479Z,14.47
2018-04-22T00:48:23.944Z,14.63
2018-04-22T00:50:51.473Z,14.37
2018-04-22T00:53:18.278Z,16.70
2018-04-22T00:55:45.041Z,15.27
2018-04-22T00:58:11.828Z,19.67
2018-04-22T01:00:38.619Z,15.57
2018-04-22T01:03:05.424Z,16.00
2018-04-22T01:05:32.194Z,19.47
2018-04-22T01:07:58.964Z,17.80
2018-04-22T01:10:25.724Z,16.20
2018-04-22T01:12:53.212Z,15.73
2018-04-22T01:15:19.950Z,20.37
2018-04-22T01:17:46.688Z,15.73
2018-04-22T01:20:14.939Z,16.30
2018-04-22T01:22:42.409Z,17.47
2018-04-22T01:25:09.183Z,16.93
2018-04-22T01:27:35.928Z,14.63
2018-04-22T01:30:02.760Z,21.33
2018-04-22T01:32:29.502Z,19.97
2018-04-22T01:34:56.278Z,14.30
2018-04-22T01:37:23.075Z,15.00
2018-04-22T01:39:49.818Z,16.60
2018-04-22T01:42:17.262Z,13.20
2018-04-22T01:44:43.942Z,16.57
2018-04-22T01:47:10.624Z,13.17
2018-04-22T01:49:37.332Z,16.77
2018-04-22T01:52:04.039Z,14.30
2018-04-22T01:54:30.791Z,14.77
2018-04-22T01:56:57.492Z,16.83
2018-04-22T01:59:24.188Z,15.33
2018-04-22T02:01:50.871Z,18.93
2018-04-22T02:04:17.560Z,16.23
2018-04-22T02:06:44.275Z,18.20
2018-04-22T02:09:11.031Z,16.47
2018-04-22T02:11:37.800Z,16.73
2018-04-22T02:14:05.260Z,17.60
2018-04-22T02:16:32.739Z,16.93
2018-04-22T02:18:59.452Z,19.47
2018-04-22T02:21:26.912Z,16.83
2018-04-22T02:23:54.413Z,17.77
2018-04-22T02:26:21.161Z,18.43
2018-04-22T02:28:47.881Z,21.27
2018-04-22T02:31:14.636Z,28.87
2018-04-22T02:33:41.355Z,27.67
2018-04-22T02:36:08.095Z,25.07
2018-04-22T02:38:34.852Z,28.43
2018-04-22T02:41:01.643Z,28.00
2018-04-22T02:43:29.125Z,24.27
2018-04-22T02:45:56.027Z,19.80
2018-04-22T02:48:22.752Z,18.50
2018-04-22T02:50:49.497Z,19.10
2018-04-22T02:53:16.226Z,21.27
2018-04-22T02:55:42.953Z,23.43
2018-04-22T02:58:09.729Z,20.87
2018-04-22T03:00:37.215Z,20.07
2018-04-22T03:03:03.963Z,20.43
2018-04-22T03:05:30.675Z,17.60
2018-04-22T03:07:58.150Z,20.13
2018-04-22T03:10:24.883Z,17.97
2018-04-22T03:12:51.620Z,16.33
2018-04-22T03:15:18.335Z,21.33
2018-04-22T03:17:45.096Z,25.03
2018-04-22T03:20:11.815Z,23.60
2018-04-22T03:22:39.292Z,29.37
2018-04-22T03:25:06.740Z,24.80
2018-04-22T03:27:34.191Z,24.03
2018-04-22T03:30:01.644Z,20.07
2018-04-22T03:32:29.115Z,16.70
2018-04-22T03:34:55.838Z,18.43
2018-04-22T03:37:22.581Z,21.07
2018-04-22T03:39:50.075Z,33.10
2018-04-22T03:42:16.780Z,20.20
2018-04-22T03:44:44.256Z,18.83
2018-04-22T03:47:10.976Z,19.17
2018-04-22T03:49:38.439Z,18.10
2018-04-22T03:52:05.938Z,17.57
2018-04-22T03:54:32.654Z,18.17
2018-04-22T03:56:59.376Z,17.63
2018-04-22T03:59:26.824Z,17.13
2018-04-22T04:01:54.263Z,16.70
2018-04-22T04:04:20.984Z,14.23
2018-04-22T04:06:47.724Z,16.67
2018-04-22T04:09:14.464Z,16.97
2018-04-22T04:11:41.216Z,21.13
2018-04-22T04:14:07.991Z,19.50
2018-04-22T04:16:35.472Z,18.97
2018-04-22T04:19:20.362Z,14.97
2018-04-22T04:22:05.356Z,19.23
2018-04-22T04:24:56.163Z,15.97
2018-04-22T04:30:23.293Z,17.73
2018-04-22T04:32:50.043Z,19.00
2018-04-22T04:35:16.939Z,19.40
2018-04-22T04:37:44.956Z,16.27
2018-04-22T04:40:11.678Z,16.53
2018-04-22T04:42:38.375Z,18.93
2018-04-22T04:45:05.878Z,19.63
2018-04-22T04:47:32.579Z,15.90
2018-04-22T04:50:00.029Z,16.30
2018-04-22T04:52:27.484Z,19.17
2018-04-22T04:54:54.986Z,15.73
2018-04-22T04:57:21.683Z,14.93
2018-04-22T04:59:49.158Z,15.90
2018-04-22T05:02:15.871Z,15.03
2018-04-22T05:04:43.330Z,11.27
2018-04-22T05:07:10.796Z,11.30
2018-04-22T05:09:38.250Z,11.20
2018-04-22T05:12:05.666Z,13.20
2018-04-22T05:14:32.423Z,11.87
2018-04-22T05:16:59.841Z,10.67
2018-04-22T05:19:26.506Z,10.47
2018-04-22T05:21:53.183Z,12.40
2018-04-22T05:24:19.875Z,12.30
2018-04-22T05:26:46.556Z,12.17
2018-04-22T05:29:13.971Z,11.90
2018-04-22T05:31:40.646Z,16.07
2018-04-22T05:34:07.306Z,11.67
2018-04-22T05:36:34.005Z,14.33
2018-04-22T05:39:00.704Z,10.47
2018-04-22T05:41:27.363Z,10.00
2018-04-22T05:43:54.019Z,11.23
2018-04-22T05:46:20.712Z,11.17
2018-04-22T05:48:47.395Z,12.33
2018-04-22T05:51:14.066Z,9.50
2018-04-22T05:53:40.730Z,9.93
2018-04-22T05:56:07.449Z,9.50
2018-04-22T05:58:34.159Z,13.40
2018-04-22T06:01:01.619Z,11.30
2018-04-22T06:03:29.066Z,11.77
2018-04-22T06:05:56.491Z,10.37
2018-04-22T06:08:23.171Z,11.30
2018-04-22T06:10:50.646Z,12.80
2018-04-22T06:13:17.361Z,11.53
2018-04-22T06:15:44.899Z,12.53
2018-04-22T06:18:11.631Z,13.97
2018-04-22T06:20:38.369Z,11.53
2018-04-22T06:23:05.853Z,13.93
2018-04-22T06:25:33.326Z,14.53
2018-04-22T06:28:00.026Z,12.40
2018-04-22T06:30:26.707Z,14.13
2018-04-22T06:32:53.371Z,11.10
2018-04-22T06:35:20.061Z,15.80
2018-04-22T06:37:46.779Z,11.67
2018-04-22T06:40:13.486Z,13.93
2018-04-22T06:42:40.164Z,11.90
2018-04-22T06:45:06.827Z,14.77
2018-04-22T06:47:34.239Z,13.77
2018-04-22T06:50:00.932Z,14.53
2018-04-22T06:52:27.616Z,14.00
2018-04-22T06:54:54.291Z,13.73
2018-04-22T06:57:20.997Z,12.00
2018-04-22T06:59:47.679Z,12.67
2018-04-22T07:02:14.351Z,13.97
2018-04-22T07:04:41.024Z,13.70
2018-04-22T07:07:07.696Z,13.47
2018-04-22T07:09:34.383Z,13.17
2018-04-22T07:12:01.084Z,12.60
2018-04-22T07:14:27.781Z,14.10
2018-04-22T07:16:54.483Z,12.50
2018-04-22T07:19:21.198Z,15.03
2018-04-22T07:21:47.929Z,13.83
2018-04-22T07:24:14.637Z,12.57
2018-04-22T07:26:41.306Z,16.83
2018-04-22T07:29:07.984Z,18.43
2018-04-22T07:31:34.724Z,18.20
2018-04-22T07:34:01.428Z,16.73
2018-04-22T07:36:28.116Z,17.43
2018-04-22T07:38:55.088Z,16.20
2018-04-22T07:41:22.624Z,17.43
2018-04-22T07:43:49.383Z,15.80
2018-04-22T07:46:16.108Z,18.30
2018-04-22T07:48:42.938Z,18.20
2018-04-22T07:51:09.698Z,14.07
2018-04-22T07:53:37.195Z,14.83
2018-04-22T07:56:03.966Z,13.30
2018-04-22T07:58:30.711Z,12.97
2018-04-22T08:00:57.498Z,11.80
2018-04-22T08:03:25.131Z,11.57
2018-04-22T08:05:51.891Z,13.57
2018-04-22T08:08:18.619Z,11.33
2018-04-22T08:10:47.986Z,12.87
2018-04-22T08:13:14.776Z,12.30
2018-04-22T08:15:41.526Z,11.43
2018-04-22T08:18:08.263Z,12.13
2018-04-22T08:20:34.963Z,14.87
2018-04-22T08:23:01.659Z,12.20
2018-04-22T08:25:28.414Z,11.20
2018-04-22T08:27:55.132Z,8.60
2018-04-22T08:30:21.839Z,12.13
2018-04-22T08:32:49.266Z,11.03
2018-04-22T08:35:15.945Z,10.37
2018-04-22T08:37:42.659Z,14.13
2018-04-22T08:40:09.372Z,12.63
2018-04-22T08:42:36.084Z,9.87
2018-04-22T08:45:03.536Z,10.63
2018-04-22T08:47:30.218Z,10.20
2018-04-22T08:49:56.904Z,10.73
2018-04-22T08:52:23.571Z,8.57
2018-04-22T08:54:50.237Z,9.50
2018-04-22T08:57:16.911Z,8.03
2018-04-22T08:59:43.619Z,7.90
2018-04-22T09:02:10.304Z,9.90
2018-04-22T09:04:36.976Z,8.63
2018-04-22T09:07:03.694Z,8.77
2018-04-22T09:09:30.374Z,11.00
2018-04-22T09:11:57.102Z,9.37
2018-04-22T09:14:23.771Z,9.17
2018-04-22T09:16:51.217Z,9.77
2018-04-22T09:19:18.637Z,8.70
2018-04-22T09:21:45.329Z,11.47
2018-04-22T09:24:12.751Z,13.03
2018-04-22T09:26:39.476Z,11.40
2018-04-22T09:29:06.176Z,9.80
2018-04-22T09:31:32.890Z,9.77
2018-04-22T09:34:00.303Z,10.23
2018-04-22T09:36:27.008Z,8.97
2018-04-22T09:38:54.423Z,11.13
2018-04-22T09:41:21.170Z,9.90
2018-04-22T09:43:48.611Z,9.23
2018-04-22T09:46:15.350Z,10.47
2018-04-22T09:48:42.055Z,9.10
2018-04-22T09:51:08.818Z,7.80
2018-04-22T09:53:35.562Z,9.70
2018-04-22T09:56:02.281Z,9.07
2018-04-22T09:58:28.948Z,10.65
2018-04-22T10:01:00.556Z,9.80
2018-04-22T10:03:31.136Z,7.62
2018-04-22T10:06:01.699Z,8.83
2018-04-22T10:08:28.379Z,6.93
2018-04-22T10:10:55.089Z,9.90
2018-04-22T10:13:21.776Z,8.70
2018-04-22T10:15:48.438Z,9.48
2018-04-22T10:18:15.923Z,8.32
2018-04-22T10:20:42.615Z,9.23
2018-04-22T10:23:09.288Z,10.23
2018-04-22T10:25:35.968Z,11.43
2018-04-22T10:28:02.656Z,6.32
2018-04-22T10:30:29.416Z,11.68
2018-04-22T10:32:56.156Z,10.88
2018-04-22T10:35:22.916Z,8.90
2018-04-22T10:37:49.671Z,10.43
2018-04-22T10:40:16.436Z,8.32
2018-04-22T10:42:44.011Z,9.18
2018-04-22T10:45:10.768Z,10.68
2018-04-22T10:47:37.540Z,7.82
2018-04-22T10:50:04.311Z,8.65
2018-04-22T10:52:31.818Z,13.75
2018-04-22T10:54:58.660Z,8.40
2018-04-22T10:57:25.445Z,7.32
2018-04-22T10:59:52.277Z,8.85
2018-04-22T11:02:19.116Z,6.97
2018-04-22T11:04:45.816Z,7.53
2018-04-22T11:07:12.514Z,7.90
2018-04-22T11:09:39.270Z,8.35
2018-04-22T11:12:06.688Z,7.15
2018-04-22T11:14:33.383Z,8.85
2018-04-22T11:17:00.071Z,8.20
2018-04-22T11:19:26.738Z,10.00
2018-04-22T11:21:54.195Z,7.40
2018-04-22T11:24:21.633Z,8.73
2018-04-22T11:26:48.320Z,10.02
2018-04-22T11:29:15.004Z,8.52
2018-04-22T11:31:41.750Z,8.82
2018-04-22T11:34:08.428Z,10.23
2018-04-22T11:36:35.108Z,9.35
2018-04-22T11:39:01.798Z,10.57
2018-04-22T11:41:28.519Z,9.07
2018-04-22T11:43:56.000Z,6.95
2018-04-22T11:46:22.803Z,12.63
2018-04-22T11:48:50.303Z,9.70
2018-04-22T11:51:17.804Z,8.95
2018-04-22T11:53:44.491Z,10.07
2018-04-22T11:56:11.216Z,8.85
2018-04-22T11:58:37.951Z,10.70
2018-04-22T12:01:05.383Z,9.95
2018-04-22T12:03:32.103Z,8.13
2018-04-22T12:05:58.783Z,8.98
2018-04-22T12:08:26.216Z,8.77
2018-04-22T12:10:52.970Z,8.70
2018-04-22T12:13:20.432Z,9.05
2018-04-22T12:15:47.856Z,8.07
2018-04-22T12:18:14.551Z,8.25
2018-04-22T12:20:41.285Z,6.03
2018-04-22T12:23:08.711Z,8.27
2018-04-22T12:25:36.139Z,8.57
2018-04-22T12:28:02.854Z,6.57
2018-04-22T12:30:29.632Z,7.28
2018-04-22T12:32:56.303Z,11.73
2018-04-22T12:35:23.738Z,8.07
2018-04-22T12:37:50.512Z,10.77
2018-04-22T12:40:17.944Z,10.43
2018-04-22T12:42:46.420Z,9.00
2018-04-22T12:45:13.944Z,8.23
2018-04-22T12:47:40.726Z,11.32
2018-04-22T12:50:08.299Z,11.68
2018-04-22T12:52:35.103Z,8.05
2018-04-22T12:55:01.786Z,8.88
2018-04-22T12:57:29.244Z,6.90
2018-04-22T12:59:55.908Z,7.82
2018-04-22T13:02:22.631Z,10.10
2018-04-22T13:04:49.376Z,6.22
2018-04-22T13:07:16.116Z,7.47
2018-04-22T13:09:42.811Z,5.68
2018-04-22T13:12:10.288Z,11.12
2018-04-22T13:14:36.989Z,9.52
2018-04-22T13:17:03.728Z,9.40
2018-04-22T13:19:30.437Z,5.35
2018-04-22T13:21:57.103Z,5.15
2018-04-22T13:24:23.784Z,8.10
2018-04-22T13:26:50.459Z,6.10
2018-04-22T13:29:17.130Z,6.95
2018-04-22T13:31:43.873Z,6.47
2018-04-22T13:34:10.526Z,8.02
2018-04-22T13:36:37.976Z,8.98
2018-04-22T13:39:05.511Z,7.68
2018-04-22T13:41:32.223Z,6.18
2018-04-22T13:43:58.903Z,8.52
2018-04-22T13:46:25.609Z,7.30
2018-04-22T13:48:52.326Z,5.82
2018-04-22T13:51:19.035Z,4.93
2018-04-22T13:53:46.456Z,5.97
2018-04-22T13:56:13.921Z,7.82
2018-04-22T13:58:40.596Z,8.43
2018-04-22T14:01:07.308Z,4.15
2018-04-22T14:03:33.998Z,9.65
2018-04-22T14:06:00.743Z,6.70
2018-04-22T14:08:27.431Z,5.40
2018-04-22T14:10:54.856Z,5.97
2018-04-22T14:13:21.546Z,6.07
2018-04-22T14:15:48.267Z,6.18
2018-04-22T14:18:15.687Z,7.32
2018-04-22T14:20:42.362Z,5.45
2018-04-22T14:23:09.072Z,8.02
2018-04-22T14:25:35.754Z,8.70
2018-04-22T14:28:02.466Z,5.15
2018-04-22T14:30:29.134Z,4.00
2018-04-22T14:32:55.804Z,5.57
2018-04-22T14:35:22.472Z,3.55
2018-04-22T14:37:49.146Z,5.20
2018-04-22T14:40:15.864Z,4.20
2018-04-22T14:42:43.298Z,6.57
2018-04-22T14:45:28.377Z,5.47
2018-04-22T14:47:55.772Z,4.85
2018-04-22T14:50:22.535Z,4.57
2018-04-22T14:52:49.206Z,7.90
2018-04-22T14:55:15.904Z,4.10
2018-04-22T14:57:42.623Z,4.93
2018-04-22T15:00:10.119Z,6.93
2018-04-22T15:02:36.999Z,4.85
2018-04-22T15:05:04.472Z,3.58
2018-04-22T15:07:31.152Z,4.45
2018-04-22T15:09:57.816Z,4.35
2018-04-22T15:12:24.510Z,5.03
2018-04-22T15:14:51.203Z,5.22
2018-04-22T15:17:17.917Z,3.72
2018-04-22T15:19:44.595Z,5.12
2018-04-22T15:22:12.030Z,4.57
2018-04-22T15:24:38.739Z,9.48
2018-04-22T15:27:05.436Z,5.22
2018-04-22T15:29:32.858Z,6.35
2018-04-22T15:31:59.522Z,7.15
2018-04-22T15:34:26.944Z,5.55
2018-04-22T15:36:53.641Z,4.65
2018-04-22T15:39:20.335Z,4.85
2018-04-22T15:41:47.036Z,5.50
2018-04-22T15:44:13.769Z,4.57
2018-04-22T15:46:40.449Z,5.47
2018-04-22T15:49:07.121Z,6.07
2018-04-22T15:51:33.822Z,4.37
2018-04-22T15:54:00.524Z,8.18
2018-04-22T15:56:27.259Z,7.70
2018-04-22T15:58:53.977Z,4.05
2018-04-22T16:01:20.771Z,4.05
2018-04-22T16:03:47.539Z,5.82
2018-04-22T16:06:15.044Z,7.45
2018-04-22T16:08:41.786Z,7.45
2018-04-22T16:11:08.546Z,7.95
2018-04-22T16:13:35.279Z,6.17
2018-04-22T16:16:02.030Z,8.65
2018-04-22T16:18:28.775Z,5.93
2018-04-22T16:20:55.528Z,5.50
2018-04-22T16:23:22.254Z,9.98
2018-04-22T16:25:49.035Z,6.10
2018-04-22T16:28:15.805Z,6.40
2018-04-22T16:30:43.566Z,5.82
2018-04-22T16:33:10.375Z,7.43
2018-04-22T16:35:37.160Z,4.70
2018-04-22T16:38:03.940Z,8.40
2018-04-22T16:40:31.483Z,5.37
2018-04-22T16:42:58.222Z,6.83
2018-04-22T16:45:25.051Z,8.50
2018-04-22T16:47:51.815Z,7.93
2018-04-22T16:50:19.326Z,6.73
2018-04-22T16:52:46.139Z,5.67
2018-04-22T16:55:12.896Z,7.63
2018-04-22T16:57:39.637Z,5.57
2018-04-22T17:00:07.348Z,9.93
2018-04-22T17:02:34.133Z,6.80
2018-04-22T17:05:00.868Z,7.37
2018-04-22T17:07:27.640Z,7.20
2018-04-22T17:09:54.377Z,8.30
2018-04-22T17:12:21.146Z,10.07
2018-04-22T17:14:47.908Z,5.27
2018-04-22T17:17:15.415Z,7.77
2018-04-22T17:19:42.198Z,8.93
2018-04-22T17:22:09.672Z,8.17
2018-04-22T17:24:36.441Z,7.47
2018-04-22T17:27:03.246Z,6.40
2018-04-22T17:29:30.731Z,5.77
2018-04-22T17:31:57.471Z,5.73
2018-04-22T17:34:24.261Z,6.20
2018-04-22T17:36:51.035Z,6.30
2018-04-22T17:39:17.788Z,7.07
2018-04-22T17:41:44.638Z,8.80
2018-04-22T17:44:11.438Z,8.93
2018-04-22T17:46:38.129Z,7.63
2018-04-22T17:49:04.863Z,6.67
2018-04-22T17:51:31.639Z,7.93
2018-04-22T17:53:58.422Z,11.27
2018-04-22T17:56:25.260Z,7.73
2018-04-22T17:58:51.969Z,8.70
2018-04-22T18:01:18.696Z,11.03
2018-04-22T18:03:45.401Z,7.13
2018-04-22T18:06:12.106Z,6.87
2018-04-22T18:08:39.564Z,9.90
2018-04-22T18:11:07.048Z,7.33
2018-04-22T18:13:33.807Z,8.03
2018-04-22T18:16:00.570Z,10.07
2018-04-22T18:18:27.312Z,8.47
2018-04-22T18:20:54.004Z,7.93
2018-04-22T18:23:20.694Z,8.87
2018-04-22T18:25:47.414Z,11.20
2018-04-22T18:28:14.094Z,6.87
2018-04-22T18:30:41.520Z,10.30
2018-04-22T18:33:08.247Z,15.83
2018-04-22T18:35:34.902Z,7.57
2018-04-22T18:38:01.575Z,8.97
2018-04-22T18:40:28.288Z,8.87
2018-04-22T18:42:55.023Z,8.30
2018-04-22T18:45:21.723Z,8.67
2018-04-22T18:47:48.395Z,5.53
2018-04-22T18:50:15.114Z,9.87
2018-04-22T18:52:41.788Z,10.60
2018-04-22T18:55:09.241Z,9.03
2018-04-22T18:57:35.983Z,8.27
2018-04-22T19:00:04.467Z,8.17
2018-04-22T19:02:31.938Z,8.83
2018-04-22T19:04:59.369Z,8.80
2018-04-22T19:07:26.824Z,9.10
2018-04-22T19:09:53.486Z,8.63
2018-04-22T19:12:20.925Z,9.37
2018-04-22T19:14:48.358Z,7.93
2018-04-22T19:17:15.104Z,6.67
2018-04-22T19:19:41.836Z,9.67
2018-04-22T19:22:08.556Z,8.67
2018-04-22T19:24:35.248Z,8.80
2018-04-22T19:27:02.680Z,6.30
2018-04-22T19:29:29.349Z,11.83
2018-04-22T19:31:56.926Z,11.80
2018-04-22T19:34:23.635Z,10.63
2018-04-22T19:36:50.332Z,7.20
2018-04-22T19:39:17.003Z,10.50
2018-04-22T19:41:44.643Z,8.40
2018-04-22T19:44:11.327Z,7.93
2018-04-22T19:46:38.017Z,7.63
2018-04-22T19:49:04.713Z,11.30
2018-04-22T19:51:31.624Z,8.37
2018-04-22T19:53:58.506Z,7.80
2018-04-22T19:56:25.266Z,8.60
2018-04-22T19:58:52.046Z,7.87
2018-04-22T20:01:19.566Z,12.27
2018-04-22T20:03:46.309Z,10.37
2018-04-22T20:06:13.057Z,7.47
2018-04-22T20:08:39.747Z,8.60
2018-04-22T20:11:06.482Z,7.77
2018-04-22T20:13:33.179Z,9.97
2018-04-22T20:15:59.900Z,9.80
2018-04-22T20:18:26.603Z,7.13
2018-04-22T20:20:53.283Z,8.50
2018-04-22T20:23:20.057Z,8.93
2018-04-22T20:25:47.521Z,8.23
2018-04-22T20:28:14.956Z,8.63
2018-04-22T20:30:42.328Z,7.43
2018-04-22T20:33:09.756Z,7.17
2018-04-22T20:35:36.444Z,9.83
2018-04-22T20:38:03.151Z,10.67
2018-04-22T20:40:29.840Z,9.00
2018-04-22T20:42:56.561Z,11.03
2018-04-22T20:45:23.248Z,8.77
2018-04-22T20:47:49.923Z,10.27
2018-04-22T20:50:17.374Z,7.03
2018-04-22T20:52:44.850Z,7.70
2018-04-22T20:55:11.528Z,10.53
2018-04-22T20:57:38.230Z,10.20
2018-04-22T21:00:04.928Z,11.53
2018-04-22T21:02:31.608Z,12.17
2018-04-22T21:04:58.301Z,14.40
2018-04-22T21:07:25.015Z,9.70
2018-04-22T21:09:52.668Z,8.00
2018-04-22T21:12:19.460Z,8.73
2018-04-22T21:14:46.995Z,8.77
2018-04-22T21:17:13.696Z,8.57
2018-04-22T21:19:41.138Z,9.30
2018-04-22T21:22:07.811Z,12.50
2018-04-22T21:24:34.511Z,9.40
2018-04-22T21:27:01.199Z,8.73
2018-04-22T21:29:27.919Z,10.60
2018-04-22T21:31:54.588Z,10.23
2018-04-22T21:34:21.252Z,10.37
2018-04-22T21:36:47.918Z,9.93
2018-04-22T21:39:14.584Z,9.80
2018-04-22T21:41:41.291Z,11.23
2018-04-22T21:44:07.992Z,8.77
2018-04-22T21:46:35.472Z,15.33
2018-04-22T21:49:02.185Z,10.37
2018-04-22T21:51:28.957Z,8.97
2018-04-22T21:53:55.645Z,9.40
2018-04-22T21:56:22.316Z,8.33
2018-04-22T21:58:49.821Z,9.97
2018-04-22T22:01:16.556Z,9.97
2018-04-22T22:03:43.239Z,11.50
2018-04-22T22:06:09.976Z,10.90
2018-04-22T22:08:36.656Z,10.00
2018-04-22T22:11:03.386Z,8.60
2018-04-22T22:13:30.071Z,9.50
2018-04-22T22:15:56.763Z,9.33
2018-04-22T22:18:23.424Z,10.03
2018-04-22T22:20:50.123Z,10.03
2018-04-22T22:23:17.579Z,11.03
2018-04-22T22:25:45.017Z,12.93
2018-04-22T22:28:11.686Z,10.53
2018-04-22T22:30:38.358Z,9.60
2018-04-22T22:33:05.046Z,12.00
2018-04-22T22:35:32.466Z,12.83
2018-04-22T22:37:59.149Z,7.97
2018-04-22T22:40:26.584Z,11.37
2018-04-22T22:42:53.334Z,10.87
2018-04-22T22:45:20.781Z,10.13
2018-04-22T22:47:47.463Z,10.33
2018-04-22T22:50:14.156Z,8.93
2018-04-22T22:52:40.856Z,13.63
2018-04-22T22:55:07.543Z,9.47
2018-04-22T22:57:34.283Z,9.83
2018-04-22T23:00:01.766Z,11.57
2018-04-22T23:02:28.486Z,10.90
2018-04-22T23:04:55.923Z,10.73
2018-04-22T23:07:22.603Z,11.53
2018-04-22T23:09:49.306Z,11.70
2018-04-22T23:12:15.971Z,9.37
2018-04-22T23:14:42.651Z,9.47
2018-04-22T23:17:09.346Z,10.67
2018-04-22T23:19:36.036Z,11.77
2018-04-22T23:22:02.747Z,11.93
2018-04-22T23:24:29.406Z,11.17
2018-04-22T23:26:56.083Z,11.27
2018-04-22T23:29:23.512Z,9.90
2018-04-22T23:31:50.198Z,11.63
2018-04-22T23:34:16.878Z,10.90
2018-04-22T23:36:43.545Z,10.13
2018-04-22T23:39:10.230Z,11.97
2018-04-22T23:41:36.927Z,12.57
2018-04-22T23:44:03.635Z,9.30
2018-04-22T23:46:30.304Z,14.17
2018-04-22T23:48:57.738Z,14.40
2018-04-22T23:51:24.411Z,10.80
2018-04-22T23:53:51.088Z,13.87
2018-04-22T23:56:17.798Z,10.90
2018-04-22T23:58:44.478Z,12.77
